Time;durP1;ratioP1;P1;durP2;ratioP2;P2;SDS_P1;SDS_P2;PMS_P1;PMS_P2;Temp;Humidity;BMP_temperature;BMP_pressure;BME280_temperature;BME280_humidity;BME280_pressure;Samples;Min_cycle;Max_cycle;Signal;HPM_P1;HPM_P2
2023/05/19 00:01:42;;;;;;;11.20;5.83;;;12.30;1.00;;;;;;4945407;29;20200;-82
2023/05/19 00:04:11;;;;;;;12.63;6.10;;;12.30;1.00;;;;;;4970940;28;20177;-80
2023/05/19 00:06:38;;;;;;;11.40;6.10;;;12.30;1.00;;;;;;4969806;28;20260;-81
2023/05/19 00:09:06;;;;;;;8.13;5.73;;;12.20;1.00;;;;;;4970249;28;20694;-82
2023/05/19 00:11:36;;;;;;;9.67;5.90;;;12.20;1.00;;;;;;4970187;28;20717;-82
2023/05/19 00:14:05;;;;;;;11.77;6.20;;;12.20;1.00;;;;;;4938386;29;20176;-81
2023/05/19 00:16:34;;;;;;;13.33;6.20;;;12.10;1.00;;;;;;4969724;28;20215;-82
2023/05/19 00:19:02;;;;;;;12.90;6.20;;;12.10;1.00;;;;;;4969734;28;20193;-81
2023/05/19 00:21:30;;;;;;;11.40;6.10;;;12.10;1.00;;;;;;4969956;28;20187;-81
2023/05/19 00:23:56;;;;;;;13.63;6.80;;;12.00;1.00;;;;;;4969848;28;20173;-82
2023/05/19 00:26:22;;;;;;;12.77;6.97;;;12.10;1.00;;;;;;4939022;29;20530;-81
2023/05/19 00:28:52;;;;;;;11.20;6.60;;;12.10;1.00;;;;;;4938711;29;20659;-81
2023/05/19 00:31:18;;;;;;;10.73;6.77;;;11.90;1.00;;;;;;4939248;29;20180;-81
2023/05/19 00:33:44;;;;;;;11.53;6.33;;;12.00;1.00;;;;;;4939261;29;20630;-82
2023/05/19 00:36:10;;;;;;;12.87;7.10;;;12.00;1.00;;;;;;4970466;28;20195;-81
2023/05/19 00:38:37;;;;;;;11.67;6.50;;;12.00;1.00;;;;;;4971453;28;20185;-82
2023/05/19 00:41:04;;;;;;;10.47;6.87;;;12.00;1.00;;;;;;4992037;28;20200;-81
2023/05/19 00:43:30;;;;;;;12.37;7.37;;;11.90;1.00;;;;;;4984449;28;20232;-80
2023/05/19 00:45:57;;;;;;;12.40;7.07;;;12.00;1.00;;;;;;4978680;28;20182;-81
2023/05/19 00:48:26;;;;;;;14.40;8.00;;;11.90;1.00;;;;;;4969416;28;20580;-81
2023/05/19 00:51:03;;;;;;;12.03;7.00;;;11.80;1.00;;;;;;4969876;28;20192;-80
2023/05/19 00:53:30;;;;;;;10.50;6.73;;;11.80;1.00;;;;;;4970782;28;20177;-81
2023/05/19 00:55:56;;;;;;;13.00;7.50;;;11.70;1.00;;;;;;4938618;29;20173;-82
2023/05/19 00:58:27;;;;;;;13.00;7.97;;;11.70;1.00;;;;;;4939072;29;20176;-82
2023/05/19 01:00:54;;;;;;;14.00;7.80;;;11.70;1.00;;;;;;4994247;28;20213;-80
2023/05/19 01:03:21;;;;;;;11.40;7.07;;;11.60;1.00;;;;;;4990450;28;20204;-82
2023/05/19 01:05:52;;;;;;;11.80;7.90;;;11.70;1.00;;;;;;4983182;28;20193;-81
2023/05/19 01:08:21;;;;;;;8.20;7.07;;;11.60;1.00;;;;;;4970381;28;20264;-81
2023/05/19 01:10:46;;;;;;;12.27;7.50;;;11.60;1.00;;;;;;4968970;28;20196;-81
2023/05/19 01:13:12;;;;;;;14.70;7.67;;;11.70;1.00;;;;;;4937821;29;20634;-82
2023/05/19 01:15:52;;;;;;;14.33;8.57;;;11.60;1.00;;;;;;4968860;28;20720;-81
2023/05/19 01:18:31;;;;;;;14.40;7.60;;;11.60;1.00;;;;;;4938197;29;20177;-81
2023/05/19 01:21:46;;;;;;;12.03;8.07;;;11.50;1.00;;;;;;4968529;28;20176;-82
2023/05/19 01:24:31;;;;;;;12.83;7.80;;;11.50;1.00;;;;;;4969043;28;20173;-82
2023/05/19 01:27:13;;;;;;;11.70;7.80;;;11.40;1.00;;;;;;4937737;29;20223;-82
2023/05/19 01:30:06;;;;;;;10.83;7.60;;;11.30;1.00;;;;;;4969128;28;20181;-82
2023/05/19 01:32:33;;;;;;;13.23;7.60;;;11.40;1.00;;;;;;4968553;28;20239;-82
2023/05/19 01:35:00;;;;;;;11.60;7.43;;;11.30;1.00;;;;;;4937665;29;20701;-82
2023/05/19 01:37:27;;;;;;;15.33;8.27;;;11.30;1.00;;;;;;4938124;29;20530;-81
2023/05/19 01:39:54;;;;;;;9.53;7.57;;;11.30;1.00;;;;;;4968490;28;20653;-82
2023/05/19 01:42:22;;;;;;;15.83;8.13;;;11.20;1.00;;;;;;4968347;28;20189;-82
2023/05/19 01:44:48;;;;;;;11.97;7.97;;;11.20;1.00;;;;;;4937703;29;20177;-83
2023/05/19 01:47:13;;;;;;;11.90;8.40;;;11.20;1.00;;;;;;4968434;28;20825;-83
2023/05/19 01:49:39;;;;;;;11.93;8.07;;;11.10;1.00;;;;;;4936645;29;20204;-82
2023/05/19 01:52:05;;;;;;;11.13;8.17;;;11.10;1.00;;;;;;4937570;29;20180;-81
2023/05/19 01:54:31;;;;;;;10.97;8.60;;;10.90;1.00;;;;;;4937544;29;20662;-81
2023/05/19 01:57:14;;;;;;;11.73;8.73;;;10.90;1.00;;;;;;4952164;28;20548;-81
2023/05/19 02:00:19;;;;;;;13.10;7.97;;;10.80;1.00;;;;;;4937791;29;20165;-81
2023/05/19 02:02:52;;;;;;;11.90;8.23;;;10.90;1.00;;;;;;4905388;29;20208;-81
2023/05/19 02:05:39;;;;;;;12.77;7.37;;;10.90;1.00;;;;;;4939152;29;20195;-80
2023/05/19 02:08:11;;;;;;;13.77;8.67;;;10.90;1.00;;;;;;4939378;29;20240;-81
2023/05/19 02:10:42;;;;;;;13.03;8.83;;;10.90;1.00;;;;;;4936239;29;20177;-83
2023/05/19 02:13:12;;;;;;;14.07;9.07;;;10.90;1.00;;;;;;4937030;29;20177;-82
2023/05/19 02:15:43;;;;;;;9.50;8.10;;;10.80;1.00;;;;;;4967698;28;20177;-82
2023/05/19 02:18:11;;;;;;;14.87;8.93;;;10.80;1.00;;;;;;4967902;28;20184;-80
2023/05/19 02:20:38;;;;;;;12.43;8.23;;;10.70;1.00;;;;;;4937460;29;20246;-80
2023/05/19 02:23:04;;;;;;;11.80;8.83;;;10.60;1.00;;;;;;4967903;28;20177;-82
2023/05/19 02:25:30;;;;;;;13.47;8.23;;;10.60;1.00;;;;;;4968156;28;20184;-80
2023/05/19 02:27:57;;;;;;;14.37;9.57;;;10.60;1.00;;;;;;4935501;29;20209;-82
2023/05/19 02:30:23;;;;;;;14.23;9.20;;;10.50;1.00;;;;;;4967988;28;20177;-80
2023/05/19 02:32:49;;;;;;;13.57;8.73;;;10.50;1.00;;;;;;4968012;28;20176;-82
2023/05/19 02:35:14;;;;;;;11.47;8.70;;;10.50;1.00;;;;;;4967639;28;20540;-80
2023/05/19 02:37:40;;;;;;;13.57;9.77;;;10.50;1.00;;;;;;4936861;29;20180;-80
2023/05/19 02:40:06;;;;;;;12.13;8.53;;;10.50;1.00;;;;;;4936748;29;20177;-81
2023/05/19 02:42:32;;;;;;;11.57;8.33;;;10.40;1.00;;;;;;4967775;28;20177;-81
2023/05/19 02:45:01;;;;;;;13.73;8.60;;;10.40;1.00;;;;;;4937234;29;20184;-81
2023/05/19 02:47:29;;;;;;;15.23;9.90;;;10.30;1.00;;;;;;4939609;29;20204;-81
2023/05/19 02:50:00;;;;;;;13.40;9.63;;;10.30;1.00;;;;;;4937499;29;20157;-82
2023/05/19 02:52:26;;;;;;;14.47;9.80;;;10.30;1.00;;;;;;4967151;28;20186;-83
2023/05/19 02:54:52;;;;;;;14.27;9.40;;;10.30;1.00;;;;;;4966794;28;20468;-82
2023/05/19 02:57:18;;;;;;;15.17;10.30;;;10.30;1.00;;;;;;4966896;28;20172;-81
2023/05/19 02:59:43;;;;;;;15.33;9.87;;;10.30;1.00;;;;;;4936246;29;20529;-80
2023/05/19 03:02:10;;;;;;;13.03;9.33;;;10.40;1.00;;;;;;4934488;29;20204;-81
2023/05/19 03:04:40;;;;;;;12.57;9.03;;;10.30;1.00;;;;;;4967098;28;20331;-82
2023/05/19 03:07:06;;;;;;;14.70;9.67;;;10.30;1.00;;;;;;4966699;28;20220;-80
2023/05/19 03:09:32;;;;;;;13.90;9.90;;;10.40;1.00;;;;;;4966545;28;20263;-81
2023/05/19 03:12:02;;;;;;;13.77;10.17;;;10.40;1.00;;;;;;4935973;29;20196;-83
2023/05/19 03:14:28;;;;;;;15.37;10.43;;;10.40;1.00;;;;;;4937113;29;20530;-81
2023/05/19 03:16:54;;;;;;;14.63;9.77;;;10.30;1.00;;;;;;4935965;29;20172;-82
2023/05/19 03:19:20;;;;;;;11.97;9.30;;;10.30;1.00;;;;;;4966918;28;20275;-81
2023/05/19 03:21:46;;;;;;;12.13;9.73;;;10.30;1.00;;;;;;4936104;29;20205;-81
2023/05/19 03:24:12;;;;;;;12.93;9.93;;;10.30;1.00;;;;;;4934671;29;20190;-82
2023/05/19 03:26:38;;;;;;;15.57;10.17;;;10.30;1.00;;;;;;4967644;28;20177;-81
2023/05/19 03:29:03;;;;;;;16.10;10.20;;;10.30;1.00;;;;;;4949139;29;20192;-81
2023/05/19 03:31:29;;;;;;;14.70;10.30;;;10.30;1.00;;;;;;4960745;29;20179;-81
2023/05/19 03:33:58;;;;;;;13.77;9.77;;;10.30;1.00;;;;;;4954578;29;20606;-81
2023/05/19 03:36:30;;;;;;;14.00;9.60;;;10.30;1.00;;;;;;4977905;28;20185;-81
2023/05/19 03:38:56;;;;;;;10.87;9.00;;;10.40;1.00;;;;;;4970524;28;20641;-81
2023/05/19 03:41:22;;;;;;;13.70;9.87;;;10.20;1.00;;;;;;4942012;29;20549;-82
2023/05/19 03:43:48;;;;;;;14.30;10.20;;;10.20;1.00;;;;;;4970331;28;20173;-82
2023/05/19 03:46:13;;;;;;;16.07;9.33;;;10.10;1.00;;;;;;4938222;29;20239;-81
2023/05/19 03:48:40;;;;;;;15.57;10.13;;;10.10;1.00;;;;;;4973053;28;20217;-81
2023/05/19 03:51:06;;;;;;;13.13;9.43;;;10.00;1.00;;;;;;4963460;28;20161;-81
2023/05/19 03:53:31;;;;;;;18.00;9.40;;;9.90;1.00;;;;;;4959560;28;20173;-80
2023/05/19 03:55:58;;;;;;;11.43;9.03;;;10.00;1.00;;;;;;4951174;29;20201;-82
2023/05/19 03:58:24;;;;;;;12.07;9.77;;;9.90;1.00;;;;;;4941211;29;20686;-81
2023/05/19 04:00:50;;;;;;;14.47;9.93;;;9.90;1.00;;;;;;4970514;28;20177;-80
2023/05/19 04:03:15;;;;;;;13.47;9.53;;;9.90;1.00;;;;;;4939242;29;20244;-81
2023/05/19 04:05:41;;;;;;;14.77;10.37;;;9.90;1.00;;;;;;4969830;28;20185;-81
2023/05/19 04:08:07;;;;;;;16.83;10.10;;;9.90;1.00;;;;;;4937332;29;20223;-81
2023/05/19 04:10:32;;;;;;;12.40;10.17;;;9.80;1.00;;;;;;4938199;29;20180;-82
2023/05/19 04:12:58;;;;;;;13.30;9.63;;;9.70;1.00;;;;;;4939152;29;20238;-81
2023/05/19 04:15:24;;;;;;;16.80;11.10;;;9.70;1.00;;;;;;4969865;28;20606;-81
2023/05/19 04:17:50;;;;;;;12.00;9.77;;;9.60;1.00;;;;;;4937981;29;20277;-81
2023/05/19 04:20:16;;;;;;;16.37;10.70;;;9.60;1.00;;;;;;4939123;29;20174;-81
2023/05/19 04:22:42;;;;;;;18.00;10.77;;;9.60;1.00;;;;;;4937684;29;20188;-82
2023/05/19 04:25:08;;;;;;;15.07;10.27;;;9.50;1.00;;;;;;4939193;29;20178;-80
2023/05/19 04:27:37;;;;;;;17.13;10.30;;;9.40;1.00;;;;;;4937722;29;20248;-81
2023/05/19 04:30:04;;;;;;;19.07;10.80;;;9.40;1.00;;;;;;4938595;29;20201;-80
2023/05/19 04:32:30;;;;;;;17.07;12.33;;;9.50;1.00;;;;;;4938783;29;20203;-80
2023/05/19 04:34:57;;;;;;;18.90;11.47;;;9.50;1.00;;;;;;4937289;29;20623;-79
2023/05/19 04:37:26;;;;;;;19.23;11.63;;;9.60;1.00;;;;;;4937433;29;20185;-81
2023/05/19 04:39:53;;;;;;;20.80;12.03;;;9.60;1.00;;;;;;4936831;29;20538;-81
2023/05/19 04:42:19;;;;;;;14.97;11.93;;;9.70;1.00;;;;;;4937141;29;20182;-81
2023/05/19 04:44:45;;;;;;;17.97;11.07;;;9.70;1.00;;;;;;4938753;29;20173;-81
2023/05/19 04:47:12;;;;;;;15.10;11.30;;;9.80;1.00;;;;;;4937113;29;20308;-81
2023/05/19 04:49:37;;;;;;;15.10;11.00;;;9.80;1.00;;;;;;4937227;29;20185;-81
2023/05/19 04:52:09;;;;;;;18.00;10.70;;;9.90;1.00;;;;;;4938143;29;20184;-81
2023/05/19 04:54:35;;;;;;;17.73;10.63;;;9.90;1.00;;;;;;4937184;29;20212;-81
2023/05/19 04:57:02;;;;;;;13.27;10.47;;;9.70;1.00;;;;;;4938879;29;20644;-80
2023/05/19 04:59:28;;;;;;;12.43;10.13;;;9.70;1.00;;;;;;4938454;29;20237;-81
2023/05/19 05:01:55;;;;;;;12.70;10.57;;;9.70;1.00;;;;;;4936846;29;20267;-80
2023/05/19 05:04:21;;;;;;;14.67;11.50;;;9.70;1.00;;;;;;4938015;29;20177;-81
2023/05/19 05:06:47;;;;;;;16.03;11.60;;;9.60;1.00;;;;;;4938017;29;20696;-81
2023/05/19 05:09:16;;;;;;;16.87;11.20;;;9.70;1.00;;;;;;4936978;29;20200;-80
2023/05/19 05:11:43;;;;;;;14.97;10.50;;;9.70;1.00;;;;;;4938032;29;20649;-81
2023/05/19 05:14:09;;;;;;;15.50;10.60;;;9.80;1.00;;;;;;4968911;28;20678;-81
2023/05/19 05:16:36;;;;;;;17.13;11.33;;;9.80;1.00;;;;;;4936710;29;20267;-82
2023/05/19 05:19:02;;;;;;;21.20;11.60;;;9.80;1.00;;;;;;4936382;29;20222;-81
2023/05/19 05:21:28;;;;;;;14.57;11.00;;;9.70;1.00;;;;;;4969067;28;20177;-81
2023/05/19 05:23:54;;;;;;;19.87;11.67;;;9.70;1.00;;;;;;4936870;29;20208;-81
2023/05/19 05:26:22;;;;;;;19.23;11.97;;;9.80;1.00;;;;;;4938593;29;20633;-83
2023/05/19 05:28:48;;;;;;;15.50;11.23;;;9.80;1.00;;;;;;4942125;29;20205;-83
2023/05/19 05:31:15;;;;;;;17.23;12.33;;;9.80;1.00;;;;;;4937791;29;20222;-82
2023/05/19 05:33:41;;;;;;;16.33;12.10;;;9.90;1.00;;;;;;4937303;29;20209;-82
2023/05/19 05:36:08;;;;;;;16.23;11.53;;;9.90;1.00;;;;;;4946527;28;20181;-81
2023/05/19 05:38:33;;;;;;;19.30;12.07;;;9.90;1.00;;;;;;4989284;28;20184;-80
2023/05/19 05:41:01;;;;;;;15.60;11.53;;;10.00;1.00;;;;;;4958054;28;20177;-81
2023/05/19 05:43:27;;;;;;;19.47;12.83;;;10.00;1.00;;;;;;4951027;28;20185;-82
2023/05/19 05:45:55;;;;;;;20.13;11.60;;;10.00;1.00;;;;;;4941961;29;20550;-81
2023/05/19 05:48:21;;;;;;;15.53;11.10;;;10.00;1.00;;;;;;4938130;29;20658;-82
2023/05/19 05:50:50;;;;;;;16.57;11.97;;;10.10;1.00;;;;;;4935158;29;20193;-83
2023/05/19 05:53:20;;;;;;;15.80;11.33;;;10.20;1.00;;;;;;4937411;29;20630;-81
2023/05/19 05:55:49;;;;;;;16.90;12.30;;;10.30;1.00;;;;;;4935963;29;20267;-81
2023/05/19 05:58:15;;;;;;;18.43;11.40;;;10.30;1.00;;;;;;4967854;28;20185;-81
2023/05/19 06:00:42;;;;;;;19.87;12.43;;;10.40;1.00;;;;;;4935965;29;20192;-81
2023/05/19 06:03:09;;;;;;;18.47;10.93;;;10.60;1.00;;;;;;4967820;28;20192;-82
2023/05/19 06:05:35;;;;;;;18.07;11.20;;;10.70;1.00;;;;;;4937340;29;20273;-83
2023/05/19 06:08:01;;;;;;;16.03;11.80;;;10.60;1.00;;;;;;4937275;29;20307;-82
2023/05/19 06:10:27;;;;;;;19.43;12.50;;;10.60;1.00;;;;;;4935701;29;20216;-81
2023/05/19 06:12:53;;;;;;;18.47;11.53;;;10.60;1.00;;;;;;4935893;29;20200;-82
2023/05/19 06:15:20;;;;;;;16.33;10.40;;;10.70;1.00;;;;;;4939915;29;20177;-81
2023/05/19 06:17:46;;;;;;;14.80;10.67;;;10.70;1.00;;;;;;4958527;28;20181;-81
2023/05/19 06:20:12;;;;;;;20.53;11.67;;;10.70;1.00;;;;;;4947067;29;20229;-81
2023/05/19 06:22:38;;;;;;;15.53;11.47;;;10.80;1.00;;;;;;4945744;29;20181;-82
2023/05/19 06:25:05;;;;;;;14.53;10.40;;;10.80;1.00;;;;;;4936856;29;20256;-82
2023/05/19 06:27:31;;;;;;;17.23;10.33;;;10.70;1.00;;;;;;4936867;29;20209;-81
2023/05/19 06:29:57;;;;;;;15.10;10.47;;;10.70;1.00;;;;;;4936254;29;20532;-80
2023/05/19 06:32:23;;;;;;;12.50;10.00;;;10.70;1.00;;;;;;4935667;29;20173;-81
2023/05/19 06:34:52;;;;;;;16.07;11.20;;;10.70;1.00;;;;;;4936347;29;20181;-81
2023/05/19 06:37:21;;;;;;;18.30;11.40;;;10.90;1.00;;;;;;4959839;28;20177;-81
2023/05/19 06:39:51;;;;;;;16.40;10.80;;;11.00;1.00;;;;;;4951695;28;20189;-81
2023/05/19 06:42:22;;;;;;;16.80;10.33;;;11.10;1.00;;;;;;4972069;28;20177;-82
2023/05/19 06:44:54;;;;;;;12.30;10.23;;;11.10;1.00;;;;;;4935379;29;20181;-82
2023/05/19 06:47:20;;;;;;;15.30;11.17;;;11.20;1.00;;;;;;4967683;28;20216;-82
2023/05/19 06:49:49;;;;;;;15.53;10.83;;;11.30;1.00;;;;;;4935531;29;20240;-82
2023/05/19 06:52:15;;;;;;;13.20;10.50;;;11.20;1.00;;;;;;4935172;29;20192;-81
2023/05/19 06:54:41;;;;;;;15.23;11.60;;;11.30;1.00;;;;;;4936791;29;20183;-81
2023/05/19 06:57:07;;;;;;;14.73;10.30;;;11.40;1.00;;;;;;4934851;29;20184;-81
2023/05/19 06:59:32;;;;;;;17.43;11.87;;;11.50;1.00;;;;;;4935299;29;20196;-81
2023/05/19 07:01:58;;;;;;;14.50;11.20;;;11.50;1.00;;;;;;4934296;29;20544;-82
2023/05/19 07:04:24;;;;;;;14.47;11.33;;;11.50;1.00;;;;;;4934865;29;20185;-81
2023/05/19 07:06:50;;;;;;;14.40;10.27;;;11.60;1.00;;;;;;4935216;29;20279;-83
2023/05/19 07:09:16;;;;;;;12.87;10.60;;;11.70;1.00;;;;;;4934818;29;20188;-82
2023/05/19 07:11:41;;;;;;;14.13;10.07;;;11.80;1.00;;;;;;4935234;29;20664;-81
2023/05/19 07:14:07;;;;;;;21.43;11.10;;;11.80;1.00;;;;;;4936050;29;20173;-82
2023/05/19 07:16:33;;;;;;;13.33;11.03;;;11.90;1.00;;;;;;4935751;29;20704;-82
2023/05/19 07:18:59;;;;;;;14.53;10.90;;;11.90;1.00;;;;;;4936244;29;20172;-82
2023/05/19 07:21:25;;;;;;;18.17;11.10;;;12.00;1.00;;;;;;4935606;29;20228;-82
2023/05/19 07:23:50;;;;;;;19.73;10.77;;;12.10;1.00;;;;;;4936141;29;20191;-83
2023/05/19 07:26:17;;;;;;;20.63;10.77;;;12.10;1.00;;;;;;4934827;29;20604;-81
2023/05/19 07:28:43;;;;;;;15.20;10.13;;;12.20;1.00;;;;;;4934775;29;20637;-83
2023/05/19 07:31:09;;;;;;;13.83;10.00;;;12.40;1.00;;;;;;4935800;29;20169;-81
2023/05/19 07:33:35;;;;;;;15.03;9.87;;;12.40;1.00;;;;;;4934600;29;20189;-81
2023/05/19 07:36:03;;;;;;;12.13;9.57;;;12.50;1.00;;;;;;4936110;29;20658;-82
2023/05/19 07:38:30;;;;;;;13.87;10.47;;;12.60;1.00;;;;;;4971311;28;20172;-82
2023/05/19 07:40:55;;;;;;;12.13;9.70;;;12.80;1.00;;;;;;4944924;29;20214;-82
2023/05/19 07:43:21;;;;;;;18.30;10.40;;;13.00;1.00;;;;;;4944534;29;20174;-81
2023/05/19 07:45:47;;;;;;;16.57;10.33;;;13.10;1.00;;;;;;4940368;29;20735;-82
2023/05/19 07:48:13;;;;;;;15.33;9.53;;;13.20;1.00;;;;;;4949126;29;20217;-82
2023/05/19 07:50:39;;;;;;;13.33;9.83;;;13.30;1.00;;;;;;4977937;28;20298;-82
2023/05/19 07:53:05;;;;;;;14.43;10.30;;;13.20;1.00;;;;;;4949677;29;20185;-82
2023/05/19 07:55:31;;;;;;;13.20;9.97;;;13.30;1.00;;;;;;4946653;29;20179;-80
2023/05/19 07:57:56;;;;;;;14.60;9.60;;;13.30;1.00;;;;;;4937316;29;20173;-83
2023/05/19 08:00:22;;;;;;;14.50;9.20;;;13.30;1.00;;;;;;4968462;28;20194;-82
2023/05/19 08:02:49;;;;;;;14.57;9.27;;;13.30;1.00;;;;;;4936467;29;20666;-82
2023/05/19 08:05:15;;;;;;;13.70;8.57;;;13.40;1.00;;;;;;4936771;29;20237;-80
2023/05/19 08:07:41;;;;;;;16.37;9.27;;;13.30;1.00;;;;;;4935950;29;20204;-81
2023/05/19 08:10:07;;;;;;;15.53;10.07;;;13.50;1.00;;;;;;4935676;29;20176;-81
2023/05/19 08:12:32;;;;;;;13.40;9.43;;;13.60;1.00;;;;;;4934642;29;20183;-82
2023/05/19 08:14:58;;;;;;;11.50;8.50;;;13.90;1.00;;;;;;4967557;28;20633;-82
2023/05/19 08:17:25;;;;;;;13.07;8.27;;;14.00;1.00;;;;;;4969962;28;20179;-82
2023/05/19 08:19:52;;;;;;;14.13;8.57;;;13.90;1.00;;;;;;4970268;28;20225;-82
2023/05/19 08:22:18;;;;;;;14.30;8.67;;;14.00;1.00;;;;;;4970109;28;20577;-81
2023/05/19 08:24:44;;;;;;;15.23;9.07;;;14.20;1.00;;;;;;4970050;28;20280;-81
2023/05/19 08:27:10;;;;;;;10.57;8.60;;;14.30;1.00;;;;;;4969939;28;20270;-81
2023/05/19 08:29:37;;;;;;;13.97;7.77;;;14.30;1.00;;;;;;4938734;29;20181;-81
2023/05/19 08:32:04;;;;;;;11.57;8.47;;;14.30;1.00;;;;;;4975417;28;20181;-80
2023/05/19 08:34:29;;;;;;;13.27;8.30;;;14.40;1.00;;;;;;4972467;28;20248;-81
2023/05/19 08:36:56;;;;;;;11.17;7.33;;;14.60;1.00;;;;;;4970214;28;20212;-82
2023/05/19 08:39:26;;;;;;;14.37;8.13;;;14.60;1.00;;;;;;4939054;29;20180;-82
2023/05/19 08:41:53;;;;;;;12.07;7.93;;;14.60;1.00;;;;;;4968818;28;20257;-82
2023/05/19 08:44:18;;;;;;;12.23;7.07;;;14.60;1.00;;;;;;4938217;29;20646;-82
2023/05/19 08:46:51;;;;;;;10.37;7.00;;;14.70;1.00;;;;;;4968850;28;20192;-82
2023/05/19 08:49:22;;;;;;;9.33;5.77;;;14.90;1.00;;;;;;4969546;28;20605;-81
2023/05/19 08:52:04;;;;;;;11.63;7.47;;;15.00;1.00;;;;;;4969368;28;20642;-82
2023/05/19 08:54:49;;;;;;;12.53;7.17;;;15.00;1.00;;;;;;4969178;28;20180;-82
2023/05/19 08:57:16;;;;;;;10.40;6.97;;;15.10;1.00;;;;;;4953108;28;20188;-83
2023/05/19 08:59:43;;;;;;;9.03;4.93;;;15.30;1.00;;;;;;4970972;28;20183;-81
2023/05/19 09:02:12;;;;;;;10.23;5.93;;;15.40;1.00;;;;;;4953301;28;20183;-81
2023/05/19 09:04:38;;;;;;;12.90;6.00;;;15.30;1.00;;;;;;4984695;28;20189;-82
2023/05/19 09:07:05;;;;;;;10.43;6.67;;;15.40;1.00;;;;;;4939682;29;20213;-82
2023/05/19 09:09:33;;;;;;;10.37;6.60;;;15.60;1.00;;;;;;4938944;29;20193;-81
2023/05/19 09:11:59;;;;;;;10.57;5.10;;;15.70;1.00;;;;;;4938067;29;20173;-83
2023/05/19 09:14:25;;;;;;;10.33;5.30;;;15.70;99.90;;;;;;4936731;29;20181;-82
2023/05/19 09:16:51;;;;;;;10.07;5.00;;;15.70;99.90;;;;;;4936981;29;20269;-82
2023/05/19 09:19:19;;;;;;;8.87;5.00;;;15.70;99.90;;;;;;4970088;28;20268;-81
2023/05/19 09:21:45;;;;;;;8.63;4.63;;;15.90;1.00;;;;;;4985916;28;20196;-82
2023/05/19 09:24:11;;;;;;;9.40;4.37;;;15.90;99.90;;;;;;4959700;28;20268;-82
2023/05/19 09:26:41;;;;;;;10.40;5.87;;;16.00;99.90;;;;;;4975587;28;20188;-82
2023/05/19 09:29:19;;;;;;;10.23;4.60;;;16.00;99.90;;;;;;4941975;29;20212;-82
2023/05/19 09:31:59;;;;;;;9.63;4.60;;;16.00;99.90;;;;;;4969263;28;20515;-84
2023/05/19 09:34:25;;;;;;;7.27;3.77;;;16.10;99.90;;;;;;4937835;29;20228;-83
2023/05/19 09:36:52;;;;;;;9.33;4.37;;;16.20;99.90;;;;;;4936645;29;20268;-83
2023/05/19 09:39:20;;;;;;;7.63;3.93;;;16.30;99.90;;;;;;4936683;29;20313;-81
2023/05/19 09:41:49;;;;;;;11.17;4.07;;;16.40;99.90;;;;;;4937978;29;20177;-81
2023/05/19 09:44:29;;;;;;;8.83;3.67;;;16.50;99.90;;;;;;4937486;29;20169;-81
2023/05/19 09:46:56;;;;;;;9.10;3.30;;;16.50;99.90;;;;;;4937572;29;20271;-81
2023/05/19 09:49:29;;;;;;;9.90;3.80;;;16.70;99.90;;;;;;4935696;29;20204;-83
2023/05/19 09:51:55;;;;;;;4.43;2.63;;;16.70;99.90;;;;;;4937480;29;20165;-82
2023/05/19 09:54:22;;;;;;;9.97;3.23;;;16.60;99.90;;;;;;4935649;29;20173;-82
2023/05/19 09:56:59;;;;;;;10.20;3.77;;;16.70;99.90;;;;;;4936175;29;20184;-83
2023/05/19 09:59:26;;;;;;;6.80;3.30;;;16.50;99.90;;;;;;4935991;29;20172;-82
2023/05/19 10:01:55;;;;;;;5.73;3.07;;;16.60;99.90;;;;;;4936167;29;20185;-83
2023/05/19 10:04:27;;;;;;;10.03;3.23;;;16.60;99.90;;;;;;4936943;29;20177;-83
2023/05/19 10:06:54;;;;;;;6.90;3.07;;;16.80;35.50;;;;;;4935144;29;20192;-83
2023/05/19 10:09:24;;;;;;;5.63;3.23;;;16.90;99.90;;;;;;4936560;29;20594;-81
2023/05/19 10:11:54;;;;;;;7.10;3.67;;;17.00;99.90;;;;;;4936737;29;20196;-82
2023/05/19 10:14:24;;;;;;;8.53;3.00;;;17.10;99.90;;;;;;4936463;29;20642;-83
2023/05/19 10:16:51;;;;;;;8.90;3.20;;;17.10;99.90;;;;;;4936617;29;20240;-84
2023/05/19 10:19:21;;;;;;;6.27;2.97;;;17.20;47.30;;;;;;4935533;29;20176;-82
2023/05/19 10:21:47;;;;;;;7.37;3.03;;;17.20;1.00;;;;;;4935596;29;20184;-84
2023/05/19 10:24:13;;;;;;;8.83;3.57;;;17.30;1.00;;;;;;4939236;29;20181;-83
2023/05/19 10:26:42;;;;;;;9.87;3.10;;;17.40;1.00;;;;;;4942550;29;20733;-84
2023/05/19 10:29:10;;;;;;;8.60;3.00;;;17.60;15.20;;;;;;4978045;28;20221;-81
2023/05/19 10:31:39;;;;;;;6.23;2.70;;;17.60;1.00;;;;;;4967588;28;20185;-84
2023/05/19 10:34:39;;;;;;;4.83;2.67;;;17.60;1.00;;;;;;4967675;28;20205;-82
2023/05/19 10:37:45;;;;;;;10.23;3.23;;;17.40;1.00;;;;;;4934529;29;20189;-83
2023/05/19 10:40:35;;;;;;;6.43;3.63;;;17.40;1.00;;;;;;4918709;29;20551;-82
2023/05/19 10:43:35;;;;;;;7.57;2.80;;;17.80;1.00;;;;;;4935449;29;20184;-83
2023/05/19 10:46:03;;;;;;;8.83;2.90;;;18.00;99.90;;;;;;4935164;29;20181;-82
2023/05/19 10:48:32;;;;;;;13.07;3.20;;;17.80;1.00;;;;;;4935066;29;20242;-84
2023/05/19 10:50:58;;;;;;;10.00;2.90;;;17.70;25.80;;;;;;4936734;29;20176;-83
2023/05/19 10:53:30;;;;;;;7.17;3.10;;;17.60;99.90;;;;;;4934952;29;20271;-82
2023/05/19 10:55:58;;;;;;;8.53;2.93;;;17.40;1.00;;;;;;4936724;29;20522;-83
2023/05/19 10:58:42;;;;;;;8.97;3.10;;;17.30;1.00;;;;;;4934781;29;20183;-83
2023/05/19 11:01:18;;;;;;;8.03;2.97;;;17.50;1.00;;;;;;4936246;29;20176;-82
2023/05/19 11:03:52;;;;;;;7.13;3.07;;;17.80;99.90;;;;;;4934929;29;20725;-82
2023/05/19 11:06:31;;;;;;;8.47;3.00;;;17.90;1.00;;;;;;4934859;29;20181;-84
2023/05/19 11:08:59;;;;;;;9.07;3.10;;;17.90;1.00;;;;;;4935859;29;20217;-82
2023/05/19 11:11:42;;;;;;;9.77;3.57;;;17.80;1.00;;;;;;4967137;28;20277;-82
2023/05/19 11:14:14;;;;;;;7.10;3.17;;;18.00;99.90;;;;;;4934433;29;20202;-83
2023/05/19 11:16:44;;;;;;;8.57;3.47;;;18.20;99.90;;;;;;4935310;29;20293;-82
2023/05/19 11:19:36;;;;;;;6.50;3.00;;;18.40;99.90;;;;;;4935350;29;20248;-82
2023/05/19 11:22:12;;;;;;;7.93;3.77;;;18.30;99.90;;;;;;4934578;29;20243;-82
2023/05/19 11:24:49;;;;;;;7.17;3.60;;;18.30;1.00;;;;;;4935164;29;20230;-82
2023/05/19 11:27:31;;;;;;;8.13;3.03;;;18.20;1.00;;;;;;4941522;29;20192;-82
2023/05/19 11:30:08;;;;;;;7.37;3.80;;;18.30;1.00;;;;;;4937621;29;20175;-83
2023/05/19 11:32:38;;;;;;;9.43;3.57;;;18.30;1.00;;;;;;4936919;29;20180;-82
2023/05/19 11:35:04;;;;;;;5.73;3.33;;;18.30;1.00;;;;;;4948840;29;20189;-83
2023/05/19 11:37:33;;;;;;;8.00;3.87;;;18.20;99.90;;;;;;4955022;29;20176;-83
2023/05/19 11:40:06;;;;;;;7.20;3.70;;;18.00;99.90;;;;;;4958468;29;20174;-81
2023/05/19 11:42:35;;;;;;;9.30;3.37;;;18.20;99.90;;;;;;4946379;29;20186;-82
2023/05/19 11:45:02;;;;;;;7.77;3.80;;;18.10;99.90;;;;;;4939074;29;20181;-82
2023/05/19 11:47:32;;;;;;;9.40;4.13;;;18.00;99.90;;;;;;4934827;29;20282;-82
2023/05/19 11:49:59;;;;;;;8.97;3.90;;;18.00;1.00;;;;;;4938805;29;20481;-83
2023/05/19 11:52:29;;;;;;;7.17;3.80;;;18.10;99.90;;;;;;4961065;28;20170;-82
2023/05/19 11:54:59;;;;;;;8.67;3.77;;;18.20;99.90;;;;;;4957382;28;20182;-82
2023/05/19 11:57:26;;;;;;;8.67;3.70;;;18.30;1.00;;;;;;4950388;29;20184;-83
2023/05/19 11:59:55;;;;;;;7.40;3.77;;;18.30;62.70;;;;;;4939287;29;20242;-83
2023/05/19 12:02:23;;;;;;;8.03;4.10;;;18.20;1.00;;;;;;4937929;29;20198;-82
2023/05/19 12:04:50;;;;;;;7.67;3.47;;;18.10;1.00;;;;;;4937925;29;20619;-83
2023/05/19 12:07:21;;;;;;;7.37;3.13;;;18.20;99.90;;;;;;4938483;29;20243;-82
2023/05/19 12:09:48;;;;;;;9.30;3.63;;;18.30;99.90;;;;;;4939011;29;20277;-82
2023/05/19 12:12:18;;;;;;;5.23;3.13;;;18.50;99.90;;;;;;4961966;28;20174;-82
2023/05/19 12:14:51;;;;;;;6.27;3.33;;;18.50;99.90;;;;;;4958432;28;20895;-83
2023/05/19 12:17:18;;;;;;;11.03;4.00;;;18.40;99.90;;;;;;4948618;29;20178;-82
2023/05/19 12:19:51;;;;;;;5.07;3.07;;;18.70;99.90;;;;;;4941518;29;20179;-83
2023/05/19 12:22:20;;;;;;;7.00;3.23;;;18.90;99.90;;;;;;4970382;28;20594;-81
2023/05/19 12:24:46;;;;;;;7.07;3.13;;;18.80;1.00;;;;;;4938359;29;20192;-82
2023/05/19 12:27:15;;;;;;;8.23;3.37;;;18.90;1.00;;;;;;4969925;28;20214;-81
2023/05/19 12:29:40;;;;;;;6.67;3.20;;;18.80;99.90;;;;;;4942115;29;20199;-81
2023/05/19 12:32:07;;;;;;;7.97;3.67;;;18.80;99.90;;;;;;4945570;29;20653;-81
2023/05/19 12:34:39;;;;;;;9.93;3.17;;;19.00;99.90;;;;;;4939199;29;20187;-82
2023/05/19 12:37:05;;;;;;;8.27;4.07;;;19.20;1.00;;;;;;4937549;29;20373;-83
2023/05/19 12:39:32;;;;;;;7.63;3.30;;;19.20;1.00;;;;;;4937303;29;20236;-84
2023/05/19 12:42:09;;;;;;;6.20;3.17;;;19.20;1.00;;;;;;4938316;29;20184;-85
2023/05/19 12:44:51;;;;;;;6.33;2.67;;;18.80;63.70;;;;;;4937412;29;20180;-83
2023/05/19 12:47:18;;;;;;;6.03;3.33;;;18.80;99.90;;;;;;4937087;29;20660;-83
2023/05/19 12:50:02;;;;;;;6.70;3.03;;;18.90;1.00;;;;;;4968672;28;20204;-83
2023/05/19 12:52:29;;;;;;;8.27;2.90;;;18.60;1.00;;;;;;4936985;29;20633;-82
2023/05/19 12:55:00;;;;;;;5.97;2.70;;;18.70;1.00;;;;;;4937146;29;20577;-82